Time;durP1;ratioP1;P1;durP2;ratioP2;P2;SDS_P1;SDS_P2;PMS_P1;PMS_P2;Temp;Humidity;BMP_temperature;BMP_pressure;BME280_temperature;BME280_humidity;BME280_pressure;Samples;Min_cycle;Max_cycle;Signal;HPM_P1;HPM_P2
2023/07/18 00:01:43;;;;;;;0.22;0.22;;;29.10;65.50;;;29.96;49.71;95385.50;5079027;28;20213;-37
2023/07/18 00:04:10;;;;;;;0.20;0.20;;;29.10;66.40;;;29.95;49.12;95389.31;5079005;28;20591;-37
2023/07/18 00:06:41;;;;;;;0.30;0.30;;;29.10;65.70;;;29.93;48.89;95382.59;5078935;28;20195;-37
2023/07/18 00:09:08;;;;;;;0.30;0.30;;;29.10;65.40;;;29.91;49.40;95379.41;5079240;28;20178;-37
2023/07/18 00:11:36;;;;;;;0.30;0.30;;;29.10;65.40;;;29.89;49.35;95376.97;5079569;28;20617;-37
2023/07/18 00:14:03;;;;;;;0.22;0.22;;;29.10;65.40;;;29.88;49.17;95369.94;5079397;28;20610;-37
2023/07/18 00:16:31;;;;;;;0.20;0.20;;;29.10;65.50;;;29.85;48.95;95363.25;5079473;28;20205;-37
2023/07/18 00:18:59;;;;;;;0.30;0.30;;;29.00;65.60;;;29.85;49.47;95357.84;5079123;28;20195;-37
2023/07/18 00:21:27;;;;;;;0.30;0.30;;;29.00;66.70;;;29.85;49.70;95367.88;5078860;28;20190;-37
2023/07/18 00:23:54;;;;;;;0.22;0.22;;;29.00;65.70;;;29.83;49.04;95364.66;5078385;28;20261;-37
2023/07/18 00:26:24;;;;;;;0.30;0.30;;;29.00;65.60;;;29.82;49.44;95369.28;5079416;28;20198;-37
2023/07/18 00:28:53;;;;;;;0.28;0.28;;;28.90;65.30;;;29.81;48.76;95375.78;5079132;28;20571;-37
2023/07/18 00:31:21;;;;;;;0.28;0.28;;;29.00;65.30;;;29.78;48.94;95384.50;5079096;28;20191;-37
2023/07/18 00:33:48;;;;;;;0.30;0.30;;;28.90;65.10;;;29.75;48.70;95378.91;5079669;28;20199;-37
2023/07/18 00:36:16;;;;;;;0.30;0.30;;;28.90;64.90;;;29.73;48.54;95379.22;5078067;28;20230;-37
2023/07/18 00:38:44;;;;;;;0.20;0.20;;;28.90;65.20;;;29.70;48.58;95385.22;5077786;28;20220;-37
2023/07/18 00:41:11;;;;;;;0.30;0.30;;;28.90;65.00;;;29.67;48.14;95388.53;5079015;28;20206;-37
2023/07/18 00:43:38;;;;;;;0.32;0.32;;;28.90;64.80;;;29.64;48.33;95383.75;5078715;28;20238;-37
2023/07/18 00:46:08;;;;;;;0.20;0.20;;;28.80;65.00;;;29.62;48.81;95375.91;5079156;28;20186;-37
2023/07/18 00:48:36;;;;;;;0.30;0.30;;;28.80;64.70;;;29.61;49.03;95379.72;5078040;28;20183;-41
2023/07/18 00:51:04;;;;;;;0.30;0.30;;;28.80;65.20;;;29.58;49.02;95366.00;5077349;28;20574;-37
2023/07/18 00:53:32;;;;;;;0.30;0.30;;;28.80;65.20;;;29.58;48.54;95358.72;5061185;28;20253;-38
2023/07/18 00:56:01;;;;;;;0.20;0.20;;;28.80;65.50;;;29.57;49.03;95364.44;5061296;28;20206;-37
2023/07/18 00:58:30;;;;;;;0.30;0.30;;;28.80;65.20;;;29.55;49.10;95365.53;5079838;28;20282;-37
2023/07/18 01:01:00;;;;;;;0.30;0.30;;;28.70;65.20;;;29.54;49.30;95373.91;5081015;28;20191;-38
2023/07/18 01:03:29;;;;;;;0.20;0.20;;;28.70;65.20;;;29.52;48.91;95370.72;5083012;28;20199;-39
2023/07/18 01:05:57;;;;;;;0.28;0.28;;;28.70;65.00;;;29.49;49.09;95379.44;5081855;28;20195;-37
2023/07/18 01:08:24;;;;;;;0.40;0.40;;;28.70;65.10;;;29.47;48.77;95378.94;5081694;28;20199;-37
2023/07/18 01:10:52;;;;;;;0.30;0.30;;;28.70;64.70;;;29.45;48.10;95384.63;5082083;28;20240;-39
2023/07/18 01:13:19;;;;;;;0.20;0.20;;;28.60;64.80;;;29.41;48.70;95389.06;5081275;28;20683;-39
2023/07/18 01:15:46;;;;;;;0.25;0.25;;;28.60;64.60;;;29.39;47.83;95386.66;5082059;28;20194;-37
2023/07/18 01:18:14;;;;;;;0.30;0.30;;;28.60;64.60;;;29.35;48.75;95387.56;5080928;28;20206;-39
2023/07/18 01:20:44;;;;;;;0.30;0.30;;;28.60;64.70;;;29.33;48.40;95382.47;5082002;28;20218;-37
2023/07/18 01:23:13;;;;;;;0.20;0.20;;;28.60;65.00;;;29.34;48.52;95385.94;5081985;28;20197;-39
2023/07/18 01:25:42;;;;;;;0.20;0.20;;;28.50;65.30;;;29.32;48.71;95393.53;5082477;28;20520;-40
2023/07/18 01:28:10;;;;;;;0.20;0.20;;;28.50;65.10;;;29.31;48.87;95394.63;5081348;28;20643;-38
2023/07/18 01:30:37;;;;;;;0.20;0.20;;;28.50;65.20;;;29.28;48.39;95398.72;5080432;28;20194;-38
2023/07/18 01:33:05;;;;;;;0.20;0.20;;;28.50;65.00;;;29.27;48.67;95401.72;5080478;28;20192;-39
2023/07/18 01:35:33;;;;;;;0.20;0.20;;;28.50;65.00;;;29.23;48.59;95402.34;5081923;28;20259;-37
2023/07/18 01:38:00;;;;;;;0.20;0.20;;;28.50;65.20;;;29.23;49.20;95413.16;5081583;28;20197;-40
2023/07/18 01:40:27;;;;;;;0.20;0.20;;;28.50;65.20;;;29.21;48.51;95404.53;5063723;28;20300;-39
2023/07/18 01:42:57;;;;;;;0.30;0.30;;;28.50;65.10;;;29.20;48.73;95402.13;5081297;28;20206;-38
2023/07/18 01:45:27;;;;;;;0.20;0.20;;;28.40;65.20;;;29.20;48.90;95397.53;5081090;28;20677;-37
2023/07/18 01:47:56;;;;;;;0.30;0.30;;;28.40;65.40;;;29.18;48.77;95401.63;5081110;28;20186;-37
2023/07/18 01:50:24;;;;;;;0.30;0.30;;;28.40;65.20;;;29.17;48.80;95405.41;5081606;28;20196;-37
2023/07/18 01:52:51;;;;;;;0.30;0.30;;;28.40;65.00;;;29.12;48.49;95403.59;5079916;28;20256;-37
2023/07/18 01:55:19;;;;;;;0.30;0.30;;;28.40;65.20;;;29.10;48.94;95405.81;5080685;28;20199;-37
2023/07/18 01:57:49;;;;;;;0.20;0.20;;;28.40;65.30;;;29.11;49.57;95406.63;5080332;28;20453;-37
2023/07/18 02:00:20;;;;;;;0.30;0.30;;;28.40;65.60;;;29.10;49.00;95408.53;5080226;28;20202;-37
2023/07/18 02:02:52;;;;;;;0.20;0.20;;;28.40;65.50;;;29.08;49.40;95411.50;5064691;28;20225;-37
2023/07/18 02:05:27;;;;;;;0.30;0.30;;;28.40;65.50;;;29.07;48.40;95417.22;5081851;28;20211;-37
2023/07/18 02:07:57;;;;;;;0.30;0.30;;;28.40;65.00;;;29.01;48.41;95416.50;5080788;28;20248;-37
2023/07/18 02:10:26;;;;;;;0.30;0.30;;;28.30;65.00;;;28.98;49.22;95410.88;5080166;28;20252;-37
2023/07/18 02:12:56;;;;;;;0.30;0.30;;;28.30;65.00;;;28.97;48.56;95407.41;5080269;28;20205;-37
2023/07/18 02:15:24;;;;;;;0.30;0.30;;;28.30;65.10;;;28.97;48.76;95415.50;5064022;28;20196;-37
2023/07/18 02:17:51;;;;;;;0.30;0.30;;;28.20;65.20;;;28.93;48.78;95417.19;5080981;28;20198;-36
2023/07/18 02:20:19;;;;;;;0.30;0.30;;;28.20;64.90;;;28.92;49.09;95418.28;5063518;28;20193;-38
2023/07/18 02:22:47;;;;;;;0.30;0.30;;;28.20;65.00;;;28.90;48.46;95421.28;5080960;28;20228;-38
2023/07/18 02:25:17;;;;;;;0.30;0.30;;;28.20;65.00;;;28.87;48.34;95421.09;5063727;28;20248;-37
2023/07/18 02:27:46;;;;;;;0.30;0.30;;;28.20;65.00;;;28.83;48.84;95420.88;5081147;28;20173;-39
2023/07/18 02:30:14;;;;;;;0.22;0.22;;;28.20;64.90;;;28.80;48.80;95416.06;5081005;28;20192;-37
2023/07/18 02:32:43;;;;;;;0.30;0.30;;;28.10;65.00;;;28.80;48.71;95417.97;5079849;28;20545;-38
2023/07/18 02:35:17;;;;;;;0.30;0.30;;;28.10;65.20;;;28.79;49.08;95413.66;5079690;28;20193;-37
2023/07/18 02:37:46;;;;;;;0.30;0.30;;;28.10;65.30;;;28.74;48.98;95412.63;5080548;28;20600;-39
2023/07/18 02:40:17;;;;;;;0.20;0.20;;;28.10;65.40;;;28.77;49.05;95427.44;5080013;28;20191;-40
2023/07/18 02:42:44;;;;;;;0.20;0.20;;;28.10;65.50;;;28.78;49.34;95422.84;5080208;28;20203;-38
2023/07/18 02:45:13;;;;;;;0.30;0.30;;;28.10;65.60;;;28.75;49.25;95426.94;5079497;28;20229;-38
2023/07/18 02:47:40;;;;;;;0.30;0.30;;;28.10;65.10;;;28.71;48.85;95432.13;5080179;28;20212;-37
2023/07/18 02:50:08;;;;;;;0.30;0.30;;;28.10;64.90;;;28.68;48.63;95440.81;5079608;28;20269;-38
2023/07/18 02:52:36;;;;;;;0.30;0.30;;;28.00;64.70;;;28.64;48.76;95437.06;5081087;28;20608;-39
2023/07/18 02:55:04;;;;;;;0.30;0.30;;;28.00;65.00;;;28.63;48.43;95437.38;5080014;28;20630;-37
2023/07/18 02:57:31;;;;;;;0.30;0.30;;;28.00;64.90;;;28.60;49.01;95439.56;5079511;28;20216;-37
2023/07/18 02:59:59;;;;;;;0.30;0.30;;;28.00;65.00;;;28.58;49.04;95443.66;5079067;28;20214;-38
2023/07/18 03:02:28;;;;;;;0.20;0.20;;;27.90;65.00;;;28.56;48.63;95446.66;5078656;28;20224;-37
2023/07/18 03:04:56;;;;;;;0.30;0.30;;;27.90;64.80;;;28.48;48.52;95433.81;5079786;28;20193;-38
2023/07/18 03:07:23;;;;;;;0.30;0.30;;;27.90;64.90;;;28.50;48.47;95442.41;5080637;28;20248;-38
2023/07/18 03:09:51;;;;;;;0.25;0.25;;;27.90;64.80;;;28.47;48.15;95434.91;5079326;28;20194;-37
2023/07/18 03:12:18;;;;;;;0.30;0.30;;;27.80;64.80;;;28.44;48.54;95441.69;5079805;28;20200;-39
2023/07/18 03:14:45;;;;;;;0.30;0.30;;;27.80;64.50;;;28.41;48.19;95446.88;5079452;28;20236;-38
2023/07/18 03:17:14;;;;;;;0.28;0.28;;;27.80;64.60;;;28.38;48.71;95447.44;5076536;28;20262;-39
2023/07/18 03:19:40;;;;;;;0.40;0.40;;;27.70;64.40;;;28.35;48.43;95446.13;5076914;28;20204;-38
2023/07/18 03:22:07;;;;;;;0.30;0.30;;;27.70;64.70;;;28.31;49.03;95444.31;5077071;28;20573;-42
2023/07/18 03:24:35;;;;;;;0.30;0.30;;;27.70;64.80;;;28.27;48.84;95436.81;5076607;28;20610;-38
2023/07/18 03:27:03;;;;;;;0.30;0.30;;;27.70;64.70;;;28.27;48.88;95444.91;5077964;28;20198;-39
2023/07/18 03:29:31;;;;;;;0.30;0.30;;;27.70;65.10;;;28.28;49.47;95440.31;5060257;28;20632;-38
2023/07/18 03:32:00;;;;;;;0.30;0.30;;;27.60;64.80;;;28.27;48.99;95447.59;5077928;28;20192;-39
2023/07/18 03:34:28;;;;;;;0.30;0.30;;;27.70;65.00;;;28.25;49.13;95449.00;5078104;28;20208;-38
2023/07/18 03:36:56;;;;;;;0.20;0.20;;;27.60;65.10;;;28.23;48.73;95448.47;5078160;28;20204;-39
2023/07/18 03:39:23;;;;;;;0.30;0.30;;;27.60;64.90;;;28.20;48.74;95452.56;5093820;28;20190;-42
2023/07/18 03:41:50;;;;;;;0.30;0.30;;;27.60;65.10;;;28.19;49.19;95456.34;5078507;28;20632;-43
2023/07/18 03:44:17;;;;;;;0.30;0.30;;;27.60;65.10;;;28.17;49.24;95450.44;5076137;28;20339;-37
2023/07/18 03:46:44;;;;;;;0.30;0.30;;;27.60;65.10;;;28.16;48.68;95456.94;5075744;28;20234;-37
2023/07/18 03:49:11;;;;;;;0.22;0.22;;;27.60;65.10;;;28.12;48.45;95453.22;5075812;28;20257;-37
2023/07/18 03:51:39;;;;;;;0.30;0.30;;;27.60;65.00;;;28.08;48.22;95460.28;5076017;28;20201;-36
2023/07/18 03:54:06;;;;;;;0.30;0.30;;;27.50;64.60;;;28.04;48.69;95456.53;5075712;28;20509;-37
2023/07/18 03:56:33;;;;;;;0.30;0.30;;;27.50;64.40;;;28.01;48.76;95457.13;5075530;28;20194;-37
2023/07/18 03:59:00;;;;;;;0.30;0.30;;;27.50;64.50;;;27.96;48.81;95456.09;5074563;28;20208;-37
2023/07/18 04:01:27;;;;;;;0.30;0.30;;;27.50;64.40;;;27.94;48.95;95460.97;5075562;28;20201;-37
2023/07/18 04:03:55;;;;;;;0.30;0.30;;;27.50;64.80;;;27.94;49.03;95457.44;5075855;28;20217;-37
2023/07/18 04:06:22;;;;;;;0.25;0.25;;;27.50;65.20;;;27.94;49.25;95458.28;5075746;28;20653;-36
2023/07/18 04:08:49;;;;;;;0.30;0.30;;;27.40;65.00;;;27.95;48.96;95467.16;5074977;28;20193;-37
2023/07/18 04:11:17;;;;;;;0.30;0.30;;;27.40;65.10;;;27.94;48.75;95468.25;5074741;28;20536;-37
2023/07/18 04:13:45;;;;;;;0.30;0.30;;;27.40;65.00;;;27.90;49.03;95470.72;5074645;28;20200;-37
2023/07/18 04:16:12;;;;;;;0.20;0.20;;;27.40;64.90;;;27.89;49.32;95471.81;5075795;28;20270;-36
2023/07/18 04:18:39;;;;;;;0.20;0.20;;;27.40;65.10;;;27.91;49.59;95474.22;5074360;28;20205;-37
2023/07/18 04:21:07;;;;;;;0.28;0.28;;;27.40;65.40;;;27.92;49.89;95467.75;5075741;28;20694;-37
2023/07/18 04:23:34;;;;;;;0.30;0.30;;;27.40;65.60;;;27.96;50.17;95466.88;5074860;28;20216;-36
2023/07/18 04:26:03;;;;;;;0.30;0.30;;;27.40;65.70;;;28.01;50.28;95470.59;5074570;28;20193;-37
2023/07/18 04:28:33;;;;;;;0.22;0.22;;;27.40;65.90;;;28.03;49.70;95481.91;5075596;28;20223;-37
2023/07/18 04:31:02;;;;;;;0.30;0.30;;;27.40;65.40;;;28.03;49.53;95473.81;5075921;28;20603;-37
2023/07/18 04:33:35;;;;;;;0.30;0.30;;;27.40;65.70;;;28.03;49.68;95473.81;5076491;28;20201;-37
2023/07/18 04:36:04;;;;;;;0.30;0.30;;;27.40;66.80;;;28.06;50.27;95481.34;5079899;28;20576;-37
2023/07/18 04:38:33;;;;;;;0.30;0.30;;;27.50;66.00;;;28.07;50.44;95478.34;5079847;28;20197;-38
2023/07/18 04:41:01;;;;;;;0.22;0.22;;;27.50;66.10;;;28.09;50.37;95483.47;5079501;28;20280;-37
2023/07/18 04:43:28;;;;;;;0.30;0.30;;;27.50;66.00;;;28.10;50.29;95480.47;5079217;28;20249;-37
2023/07/18 04:45:56;;;;;;;0.30;0.30;;;27.50;66.10;;;28.11;50.31;95474.00;5080322;28;20185;-38
2023/07/18 04:48:23;;;;;;;0.20;0.20;;;27.50;66.10;;;28.13;50.12;95475.59;5081735;28;20188;-39
2023/07/18 04:50:58;;;;;;;0.30;0.30;;;27.50;66.00;;;28.14;50.30;95469.91;5080970;28;20197;-40
2023/07/18 04:53:27;;;;;;;0.35;0.35;;;27.50;66.00;;;28.10;50.02;95467.00;5064183;28;20185;-37
2023/07/18 04:55:55;;;;;;;0.30;0.30;;;27.60;65.90;;;28.15;50.18;95482.31;5078714;28;20201;-41
2023/07/18 04:58:25;;;;;;;0.30;0.30;;;27.60;66.00;;;28.16;50.05;95483.91;5078106;28;20188;-41
2023/07/18 05:00:54;;;;;;;0.20;0.20;;;27.60;66.10;;;28.17;49.93;95476.63;5076812;28;20256;-42
2023/07/18 05:03:23;;;;;;;0.30;0.30;;;27.60;66.10;;;28.19;50.25;95479.84;5077927;28;20303;-42
2023/07/18 05:05:51;;;;;;;0.30;0.30;;;27.60;66.00;;;28.19;50.39;95487.94;5060693;28;20200;-38
2023/07/18 05:08:20;;;;;;;0.30;0.30;;;27.60;66.20;;;28.19;49.85;95486.03;5079389;28;20185;-42
2023/07/18 05:10:47;;;;;;;0.20;0.20;;;27.60;66.00;;;28.19;50.19;95486.03;5077966;28;20650;-39
2023/07/18 05:13:15;;;;;;;0.30;0.30;;;27.60;66.10;;;28.18;50.26;95486.31;5078124;28;20201;-40
2023/07/18 05:15:42;;;;;;;0.30;0.30;;;27.60;66.10;;;28.20;50.43;95493.03;5077880;28;20628;-38
2023/07/18 05:18:10;;;;;;;0.30;0.30;;;27.70;66.10;;;28.21;50.69;95499.22;5077650;28;20261;-40
2023/07/18 05:20:38;;;;;;;0.28;0.28;;;27.60;66.20;;;28.22;50.42;95492.72;5077942;28;20574;-39
2023/07/18 05:23:05;;;;;;;0.22;0.22;;;27.60;66.40;;;28.22;50.87;95493.53;5077368;28;20241;-38
2023/07/18 05:25:33;;;;;;;0.22;0.22;;;27.60;66.40;;;28.24;50.43;95498.63;5076802;28;20183;-39
2023/07/18 05:28:00;;;;;;;0.20;0.20;;;27.70;66.40;;;28.24;50.49;95504.81;5077874;28;20595;-39
2023/07/18 05:30:27;;;;;;;0.30;0.30;;;27.70;65.70;;;28.26;50.61;95499.16;5077615;28;20589;-38
2023/07/18 05:32:54;;;;;;;0.30;0.30;;;27.70;66.10;;;28.25;50.41;95498.34;5077461;28;20269;-39
2023/07/18 05:35:22;;;;;;;0.30;0.30;;;27.70;66.00;;;28.22;49.60;95496.25;5077300;28;20712;-38
2023/07/18 05:37:49;;;;;;;0.20;0.20;;;27.70;65.60;;;28.22;49.83;95492.72;5077226;28;20664;-38
2023/07/18 05:40:16;;;;;;;0.28;0.28;;;27.70;65.80;;;28.22;50.16;95490.84;5077123;28;20280;-37
2023/07/18 05:42:48;;;;;;;0.30;0.30;;;27.70;65.90;;;28.22;49.91;95504.34;5076110;28;20522;-38
2023/07/18 05:45:16;;;;;;;0.30;0.30;;;27.70;65.90;;;28.23;50.17;95505.91;5076481;28;20235;-38
2023/07/18 05:47:43;;;;;;;0.30;0.30;;;27.70;66.00;;;28.25;50.23;95502.94;5077731;28;20688;-38
2023/07/18 05:50:11;;;;;;;0.30;0.30;;;27.70;65.60;;;28.25;50.40;95511.03;5076942;28;20287;-39
2023/07/18 05:52:38;;;;;;;0.30;0.30;;;27.70;65.90;;;28.25;50.10;95509.13;5076804;28;20283;-37
2023/07/18 05:55:07;;;;;;;0.30;0.30;;;27.70;65.50;;;28.28;50.39;95513.13;5077612;28;20190;-38
2023/07/18 05:57:34;;;;;;;0.30;0.30;;;27.70;65.80;;;28.27;50.47;95512.34;5077131;28;20692;-38
2023/07/18 06:00:06;;;;;;;0.20;0.20;;;27.70;66.00;;;28.30;50.70;95512.88;5076183;28;20197;-38
2023/07/18 06:02:39;;;;;;;0.30;0.30;;;27.70;66.10;;;28.31;50.27;95517.16;5076898;28;20185;-37
2023/07/18 06:05:07;;;;;;;0.20;0.20;;;27.70;66.20;;;28.31;51.00;95517.16;5076054;28;20214;-37
2023/07/18 06:07:34;;;;;;;0.20;0.20;;;27.70;66.30;;;28.32;50.71;95516.88;5076833;28;20225;-38
2023/07/18 06:10:03;;;;;;;0.20;0.20;;;27.70;66.40;;;28.33;51.08;95517.66;5076552;28;20288;-38
2023/07/18 06:12:30;;;;;;;0.20;0.20;;;27.70;66.40;;;28.34;50.63;95522.78;5075380;28;20348;-38
2023/07/18 06:14:57;;;;;;;0.30;0.30;;;27.80;65.80;;;28.33;49.88;95518.50;5076398;28;20201;-38
2023/07/18 06:17:25;;;;;;;0.20;0.20;;;27.80;65.90;;;28.34;50.21;95514.69;5076572;28;20225;-37
2023/07/18 06:19:52;;;;;;;0.30;0.30;;;27.80;65.70;;;28.35;49.80;95520.88;5076906;28;20254;-38
2023/07/18 06:22:19;;;;;;;0.20;0.20;;;27.80;65.90;;;28.35;50.55;95516.28;5076357;28;20271;-37
2023/07/18 06:24:47;;;;;;;0.20;0.20;;;27.80;65.90;;;28.35;50.42;95507.41;5076178;28;20222;-38
2023/07/18 06:27:14;;;;;;;0.30;0.30;;;27.80;66.00;;;28.36;50.29;95515.19;5076419;28;20190;-37
2023/07/18 06:29:41;;;;;;;0.20;0.20;;;27.80;65.70;;;28.38;50.29;95507.63;5076053;28;20238;-38
2023/07/18 06:32:08;;;;;;;0.20;0.20;;;27.80;66.00;;;28.39;50.51;95511.13;5076000;28;20642;-38
2023/07/18 06:34:40;;;;;;;0.20;0.20;;;27.80;65.90;;;28.42;50.32;95507.84;5076829;28;20555;-38
2023/07/18 06:37:08;;;;;;;0.20;0.20;;;27.80;65.90;;;28.41;50.63;95512.41;5076291;28;20269;-38
2023/07/18 06:39:38;;;;;;;0.22;0.22;;;27.80;66.00;;;28.42;50.05;95507.84;5075403;28;20305;-38
2023/07/18 06:42:08;;;;;;;0.28;0.28;;;27.80;66.00;;;28.43;50.56;95512.94;5075879;28;20199;-38
2023/07/18 06:44:35;;;;;;;0.20;0.20;;;27.80;66.00;;;28.46;50.31;95516.16;5075661;28;20229;-38
2023/07/18 06:47:03;;;;;;;0.20;0.20;;;27.80;66.00;;;28.46;50.90;95518.84;5076085;28;20295;-38
2023/07/18 06:49:31;;;;;;;0.28;0.28;;;27.80;65.90;;;28.47;49.97;95521.25;5074773;28;20202;-38
2023/07/18 06:51:58;;;;;;;0.20;0.20;;;27.90;65.90;;;28.47;50.52;95512.38;5075508;28;20198;-38
2023/07/18 06:54:25;;;;;;;0.20;0.20;;;27.90;65.90;;;28.49;49.59;95510.97;5074786;28;20288;-38
2023/07/18 06:56:52;;;;;;;0.30;0.30;;;27.90;65.50;;;28.48;49.29;95514.78;5074962;28;20233;-38
2023/07/18 06:59:19;;;;;;;0.20;0.20;;;27.90;65.10;;;28.49;49.25;95504.75;5075627;28;20582;-38
2023/07/18 07:01:46;;;;;;;0.30;0.30;;;27.90;65.30;;;28.49;49.46;95507.47;5075677;28;20279;-38
2023/07/18 07:04:15;;;;;;;0.30;0.30;;;27.90;65.40;;;28.50;49.75;95506.38;5075450;28;20203;-38
2023/07/18 07:06:42;;;;;;;0.30;0.30;;;27.90;65.40;;;28.50;49.17;95503.69;5075431;28;20202;-37
2023/07/18 07:09:13;;;;;;;0.20;0.20;;;27.90;65.20;;;28.50;49.79;95499.06;5075699;28;20580;-38
2023/07/18 07:11:42;;;;;;;0.20;0.20;;;27.90;65.10;;;28.52;49.14;95493.41;5075200;28;20184;-39
2023/07/18 07:14:11;;;;;;;0.30;0.30;;;27.90;65.00;;;28.53;49.51;95495.00;5075290;28;20198;-39
2023/07/18 07:16:39;;;;;;;0.20;0.20;;;27.90;65.90;;;28.52;48.70;95493.41;5074285;28;20211;-39
2023/07/18 07:19:06;;;;;;;0.30;0.30;;;27.90;64.80;;;28.54;49.19;95494.72;5075506;28;20633;-39
2023/07/18 07:21:34;;;;;;;0.30;0.30;;;27.90;64.80;;;28.54;49.06;95488.50;5075231;28;20198;-39
2023/07/18 07:24:01;;;;;;;0.30;0.30;;;27.90;64.80;;;28.55;48.58;95490.09;5075328;28;20211;-39
2023/07/18 07:26:30;;;;;;;0.22;0.22;;;27.90;64.70;;;28.53;48.91;95490.41;5075385;28;20190;-39
2023/07/18 07:28:58;;;;;;;0.32;0.32;;;27.90;64.50;;;28.53;48.25;95484.22;5075132;28;20277;-39
2023/07/18 07:31:25;;;;;;;0.20;0.20;;;27.90;64.60;;;28.52;48.92;95486.09;5075089;28;20217;-39
2023/07/18 07:33:53;;;;;;;0.20;0.20;;;27.90;64.60;;;28.52;48.12;95488.78;5074857;28;20267;-39
2023/07/18 07:36:20;;;;;;;0.30;0.30;;;27.90;64.30;;;28.52;48.70;95479.91;5074987;28;20543;-38
2023/07/18 07:38:49;;;;;;;0.20;0.20;;;27.90;64.40;;;28.52;48.55;95480.69;5074976;28;20201;-39
2023/07/18 07:41:16;;;;;;;0.30;0.30;;;27.90;64.20;;;28.53;48.32;95492.31;5075208;28;20297;-38
2023/07/18 07:43:44;;;;;;;0.28;0.28;;;27.90;64.30;;;28.53;47.75;95486.91;5074521;28;20239;-39
2023/07/18 07:46:11;;;;;;;0.25;0.25;;;27.90;64.10;;;28.52;48.52;95488.78;5075128;28;20198;-39
2023/07/18 07:48:38;;;;;;;0.20;0.20;;;27.90;64.20;;;28.53;47.97;95482.31;5090691;28;20538;-38
2023/07/18 07:51:06;;;;;;;0.20;0.20;;;27.90;64.10;;;28.54;48.38;95483.91;5074879;28;20193;-39
2023/07/18 07:53:33;;;;;;;0.20;0.20;;;27.90;64.10;;;28.54;48.29;95483.91;5074396;28;20255;-39
2023/07/18 07:56:00;;;;;;;0.20;0.20;;;28.00;64.10;;;28.54;48.29;95481.22;5074768;28;20225;-39
2023/07/18 07:58:27;;;;;;;0.28;0.28;;;27.90;64.10;;;28.54;48.29;95467.72;5074795;28;20208;-39
2023/07/18 08:00:54;;;;;;;0.20;0.20;;;27.90;64.20;;;28.54;48.32;95473.13;5073861;28;20224;-39
2023/07/18 08:03:22;;;;;;;0.30;0.30;;;27.90;64.10;;;28.55;47.57;95469.34;5073597;28;20647;-39
2023/07/18 08:05:49;;;;;;;0.20;0.20;;;27.90;63.70;;;28.54;47.89;95473.13;5074625;28;20232;-39
2023/07/18 08:08:18;;;;;;;0.20;0.20;;;27.90;63.80;;;28.55;47.67;95468.50;5077696;28;20217;-39
2023/07/18 08:10:45;;;;;;;0.28;0.28;;;27.90;63.70;;;28.56;48.01;95460.16;5079317;28;20601;-39
2023/07/18 08:13:14;;;;;;;0.22;0.22;;;27.90;63.90;;;28.56;47.88;95462.03;5078451;28;20561;-39
2023/07/18 08:15:41;;;;;;;0.22;0.22;;;27.90;63.60;;;28.56;47.10;95456.63;5078644;28;20195;-39
2023/07/18 08:18:08;;;;;;;0.30;0.30;;;27.90;63.70;;;28.57;47.79;95453.63;5078597;28;20289;-39
2023/07/18 08:20:36;;;;;;;0.22;0.22;;;27.90;63.70;;;28.58;47.67;95457.94;5078482;28;20198;-39
2023/07/18 08:23:03;;;;;;;0.30;0.30;;;27.90;63.80;;;28.58;47.35;95449.06;5077695;28;20221;-39
2023/07/18 08:25:31;;;;;;;0.30;0.30;;;27.90;63.80;;;28.59;48.01;95450.66;5077530;28;20313;-39
2023/07/18 08:28:00;;;;;;;0.30;0.30;;;28.00;63.80;;;28.60;47.30;95450.34;5078951;28;20208;-39
2023/07/18 08:30:27;;;;;;;0.20;0.20;;;27.90;63.60;;;28.63;47.20;95453.56;5078333;28;20205;-39
2023/07/18 08:32:54;;;;;;;0.20;0.20;;;28.00;63.60;;;28.62;47.81;95452.75;5078193;28;20194;-39
2023/07/18 08:35:23;;;;;;;0.20;0.20;;;28.00;63.80;;;28.63;46.96;95448.16;5078270;28;20198;-39
2023/07/18 08:37:50;;;;;;;0.20;0.20;;;28.00;63.60;;;28.65;47.16;95446.78;5077883;28;20201;-39
2023/07/18 08:40:17;;;;;;;0.20;0.20;;;28.00;63.50;;;28.65;47.19;95444.09;5078646;28;20212;-39
2023/07/18 08:42:45;;;;;;;0.20;0.20;;;28.00;63.50;;;28.66;47.25;95440.28;5078227;28;20197;-39
2023/07/18 08:45:15;;;;;;;0.30;0.30;;;28.00;63.60;;;28.66;47.59;95443.00;5077889;28;20241;-39
2023/07/18 08:47:43;;;;;;;0.30;0.30;;;28.00;63.70;;;28.67;47.55;95443.78;5077667;28;20280;-36
2023/07/18 08:50:11;;;;;;;0.20;0.20;;;28.00;63.50;;;28.69;47.13;95441.63;5094551;28;20213;-37
2023/07/18 08:52:39;;;;;;;0.20;0.20;;;28.00;63.40;;;28.69;47.30;95425.44;5078354;28;20248;-36
2023/07/18 08:55:07;;;;;;;0.20;0.20;;;28.00;63.40;;;28.70;47.05;95425.13;5077754;28;20187;-40
2023/07/18 08:57:35;;;;;;;0.30;0.30;;;28.00;63.50;;;28.70;47.08;95427.81;5077013;28;20247;-41
2023/07/18 09:00:04;;;;;;;0.30;0.30;;;28.00;63.40;;;28.69;47.20;95428.91;5078064;28;20191;-41
2023/07/18 09:02:31;;;;;;;0.30;0.30;;;28.00;63.30;;;28.71;47.02;95417.81;5077613;28;20207;-40
2023/07/18 09:04:59;;;;;;;0.25;0.25;;;28.10;63.40;;;28.71;46.85;95420.53;5077636;28;20623;-42
2023/07/18 09:07:27;;;;;;;0.22;0.22;;;28.00;63.20;;;28.71;46.66;95410.53;5076801;28;20232;-41
2023/07/18 09:09:57;;;;;;;0.25;0.25;;;28.10;63.40;;;28.72;46.82;95412.16;5077630;28;20194;-40
2023/07/18 09:12:27;;;;;;;0.30;0.30;;;28.10;63.50;;;28.73;46.87;95404.84;5077700;28;20198;-41
2023/07/18 09:14:58;;;;;;;0.20;0.20;;;28.10;63.40;;;28.73;47.18;95404.84;5077512;28;20194;-42
2023/07/18 09:17:25;;;;;;;0.20;0.20;;;28.10;63.10;;;28.73;46.83;95405.66;5077775;28;20182;-39
2023/07/18 09:19:52;;;;;;;0.25;0.25;;;28.10;63.10;;;28.74;47.10;95404.53;5076853;28;20231;-40
2023/07/18 09:22:19;;;;;;;0.30;0.30;;;28.10;63.00;;;28.74;46.30;95398.34;5077394;28;20199;-40
2023/07/18 09:24:47;;;;;;;0.20;0.20;;;28.10;63.10;;;28.75;46.42;95384.53;5077128;28;20221;-40
2023/07/18 09:27:19;;;;;;;0.20;0.20;;;28.10;62.90;;;28.75;46.91;95384.53;5077306;28;20194;-41
2023/07/18 09:29:49;;;;;;;0.20;0.20;;;28.10;62.90;;;28.77;46.44;95386.94;5077258;28;20186;-41
2023/07/18 09:32:18;;;;;;;0.30;0.30;;;28.10;62.80;;;28.78;46.72;95385.84;5077515;28;20237;-40
2023/07/18 09:34:57;;;;;;;0.30;0.30;;;28.10;62.80;;;28.78;46.22;95375.03;5076185;28;20206;-40
2023/07/18 09:37:25;;;;;;;0.25;0.25;;;28.10;62.60;;;28.80;46.75;95377.47;5077378;28;20192;-40
2023/07/18 09:39:54;;;;;;;0.30;0.30;;;28.10;62.80;;;28.80;46.61;95375.56;5077297;28;20547;-40
2023/07/18 09:42:24;;;;;;;0.22;0.22;;;28.10;62.80;;;28.80;46.03;95366.69;5077346;28;20733;-40
2023/07/18 09:44:51;;;;;;;0.20;0.20;;;28.10;62.50;;;28.81;46.01;95362.84;5076584;28;20238;-40
2023/07/18 09:47:20;;;;;;;0.30;0.30;;;28.10;62.30;;;28.82;45.99;95365.28;5076954;28;20270;-39
2023/07/18 09:49:49;;;;;;;0.28;0.28;;;28.20;62.50;;;28.84;45.97;95362.28;5076911;28;20194;-40
2023/07/18 09:52:23;;;;;;;0.30;0.30;;;28.20;62.50;;;28.83;45.54;95358.78;5075984;28;20187;-40
2023/07/18 09:54:53;;;;;;;0.30;0.30;;;28.10;62.30;;;28.85;46.31;95353.88;5075777;28;20184;-40
2023/07/18 09:57:21;;;;;;;0.25;0.25;;;28.20;62.50;;;28.86;45.89;95343.88;5077585;28;20252;-40
2023/07/18 09:59:49;;;;;;;0.30;0.30;;;28.20;62.50;;;28.87;45.76;95342.78;5076967;28;20229;-40
2023/07/18 10:02:17;;;;;;;0.30;0.30;;;28.20;62.30;;;28.88;45.68;95337.09;5076911;28;20226;-40
2023/07/18 10:04:45;;;;;;;0.20;0.20;;;28.20;62.20;;;28.90;45.39;95337.56;5076377;28;20230;-41
2023/07/18 10:07:13;;;;;;;0.30;0.30;;;28.20;62.20;;;28.90;46.03;95332.16;5076839;28;20581;-39
2023/07/18 10:09:40;;;;;;;0.20;0.20;;;28.20;62.20;;;28.92;45.30;95334.59;5076479;28;20198;-38
2023/07/18 10:12:09;;;;;;;0.20;0.20;;;28.20;62.20;;;28.93;45.79;95333.50;5059462;28;20194;-37
2023/07/18 10:14:56;;;;;;;0.30;0.30;;;28.20;62.10;;;28.95;45.08;95330.47;5076250;28;20191;-38
2023/07/18 10:17:37;;;;;;;0.20;0.20;;;28.20;61.80;;;28.94;45.79;95324.25;5076435;28;20265;-38
2023/07/18 10:20:31;;;;;;;0.28;0.28;;;28.30;62.10;;;28.93;45.47;95320.00;5075563;28;20198;-38
2023/07/18 10:23:00;;;;;;;0.30;0.30;;;28.30;61.80;;;28.98;45.16;95319.06;5076434;28;20256;-37
2023/07/18 10:25:29;;;;;;;0.22;0.22;;;28.30;61.90;;;28.98;44.73;95317.19;5076393;28;20293;-37